Flight Track Log - Related Links

Times and Time Zones

All times are in EST time to prevent confusion due to time zone crossing. See the N287KB flight status page for this flight to view local times or setup timezone preferences in your user account.

Time Position Orientation Groundspeed Altitude Reporting Facility
EST Latitude Longitude Course Direction KTS MPH feet Rate Location/Type
Fri 04:54:48 AM 61.1667 -150.1500 134° Southeast 240 276 6,500  Level Anchorage Center
Fri 04:55:48 AM 61.0833 -150.1333 174° South 270 311 10,300 2,926 Climbing Anchorage Center
Fri 04:56:49 AM 61.0167 -150.0333 144° Southeast 340 391 12,400 2,430 Climbing Anchorage Center
Fri 04:57:49 AM 60.9500 -149.8667 129° Southeast 390 449 15,200 2,926 Climbing Anchorage Center
Fri 04:58:50 AM 60.8833 -149.6833 127° Southeast 410 472 18,300 2,975 Climbing Anchorage Center
Fri 04:59:00 AM 60.6133 -148.6160 133° Southeast  Level Estimated
Fri 04:59:50 AM 60.8000 -149.5000 133° Southeast 430 495 21,200  Level Anchorage Center
Fri 05:00:00 AM 60.5321 -148.4225 134° Southeast  Level Estimated
Fri 05:00:50 AM 60.7333 -149.3000 124° Southeast 440 506 23,700  Level Anchorage Center
Fri 05:01:51 AM 60.6500 -149.1000 130° Southeast 460 529 25,700 2,083 Climbing Anchorage Center
Fri 05:02:51 AM 60.5500 -148.9000 135° Southeast 470 541 27,900 2,050 Climbing Anchorage Center
Fri 05:03:51 AM 60.4667 -148.7000 130° Southeast 470 541 29,800 1,785 Climbing Anchorage Center
Fri 05:04:52 AM 60.3833 -148.5000 130° Southeast 470 541 31,500 1,587 Climbing Anchorage Center
Fri 05:05:52 AM 60.3000 -148.2833 128° Southeast 460 529 33,000 750 Climbing Anchorage Center
Fri 05:06:52 AM 60.2167 -148.1000 132° Southeast 450 518 33,000  Level Anchorage Center
Fri 05:07:53 AM 60.1333 -147.9333 135° Southeast 430 495 33,000  Level Anchorage Center
Fri 05:08:53 AM 60.0500 -147.7333 130° Southeast 440 506 33,000  Level Anchorage Center
Fri 05:09:54 AM 59.9667 -147.5500 132° Southeast 440 506 33,000  Level Anchorage Center
Fri 05:10:54 AM 59.8833 -147.3667 132° Southeast 460 529 33,000  Level Anchorage Center
Fri 05:11:54 AM 59.8000 -147.1833 132° Southeast 450 518 33,000  Level Anchorage Center
Fri 05:12:55 AM 59.7167 -147.0000 132° Southeast 450 518 33,000  Level Anchorage Center
Fri 05:13:55 AM 59.6333 -146.8167 132° Southeast 460 529 33,000  Level Anchorage Center
Fri 05:14:55 AM 59.5500 -146.6167 129° Southeast 460 529 33,000  Level Anchorage Center
Fri 05:16:56 AM 59.3667 -146.2333 134° Southeast 450 518 33,000  Level Anchorage Center
Fri 05:17:56 AM 59.2833 -146.0500 132° Southeast 450 518 33,000  Level Anchorage Center
Fri 05:18:57 AM 59.2167 -145.8667 125° Southeast 440 506 33,000  Level Anchorage Center
Fri 05:19:57 AM 59.1333 -145.6667 129° Southeast 440 506 33,000  Level Anchorage Center
Fri 05:20:57 AM 59.0500 -145.4833 131° Southeast 450 518 33,000  Level Anchorage Center
Fri 05:21:58 AM 58.9667 -145.3000 131° Southeast 440 506 33,000  Level Anchorage Center
Fri 05:22:58 AM 58.9000 -145.1167 125° Southeast 440 506 33,000 149 Level Anchorage Center
Fri 05:23:59 AM 58.8167 -144.9333 131° Southeast 440 506 33,300 694 Climbing Anchorage Center
Fri 05:24:59 AM 58.7333 -144.7500 131° Southeast 440 506 34,400 850 Climbing Anchorage Center
Fri 05:25:59 AM 58.6500 -144.5667 131° Southeast 450 518 35,000 298 Climbing Anchorage Center
Fri 05:27:00 AM 58.5667 -144.3833 131° Southeast 450 518 35,000  Level Anchorage Center
Fri 05:28:00 AM 58.4833 -144.2000 131° Southeast 460 529 35,000  Level Anchorage Center
Fri 05:29:00 AM 58.4000 -144.0167 131° Southeast 460 529 35,000  Level Anchorage Center
Fri 05:30:01 AM 58.3167 -143.8333 131° Southeast 450 518 35,000  Level Anchorage Center
Fri 05:31:01 AM 58.2333 -143.6500 131° Southeast 450 518 35,000  Level Anchorage Center
Fri 05:32:01 AM 58.1500 -143.4833 133° Southeast 450 518 35,000  Level Anchorage Center
Fri 05:33:02 AM 58.0667 -143.3000 131° Southeast 450 518 35,000  Level Anchorage Center
Fri 05:34:02 AM 57.9833 -143.1333 133° Southeast 440 506 35,000  Level Anchorage Center
Fri 05:35:02 AM 57.9000 -142.9500 130° Southeast 460 529 35,000  Level Anchorage Center
Fri 05:36:03 AM 57.8167 -142.7833 133° Southeast 450 518 35,000  Level Anchorage Center
Fri 05:37:03 AM 57.7333 -142.6000 130° Southeast 450 518 35,000  Level Anchorage Center
Fri 05:38:04 AM 57.6500 -142.4333 133° Southeast 440 506 35,000  Level Anchorage Center
Fri 05:39:04 AM 57.5667 -142.2667 133° Southeast 450 518 35,000  Level Anchorage Center
Fri 05:40:04 AM 57.4833 -142.1000 133° Southeast 440 506 35,000  Level Anchorage Center
Fri 05:41:05 AM 57.4000 -141.9167 130° Southeast 450 518 35,000  Level Anchorage Center
Fri 05:42:05 AM 57.3000 -141.7500 138° Southeast 450 518 35,000  Level Anchorage Center
Fri 05:43:05 AM 57.2167 -141.5833 133° Southeast 450 518 35,000  Level Anchorage Center
Fri 05:44:06 AM 57.1333 -141.4167 133° Southeast 450 518 35,000  Level Anchorage Center
Fri 05:45:06 AM 57.0500 -141.2500 133° Southeast 440 506 35,000  Level Anchorage Center
Fri 05:46:06 AM 56.9667 -141.0833 132° Southeast 450 518 35,000  Level Anchorage Center
Fri 05:47:07 AM 56.8833 -140.9167 132° Southeast 440 506 35,000  Level Anchorage Center
Fri 05:48:07 AM 56.8000 -140.7667 135° Southeast 440 506 35,000  Level Anchorage Center
Fri 05:49:08 AM 56.7000 -140.6000 138° Southeast 440 506 35,000  Level Anchorage Center
Fri 05:50:08 AM 56.6167 -140.4333 132° Southeast 440 506 35,000  Level Anchorage Center
Fri 05:51:08 AM 56.5333 -140.2833 135° Southeast 440 506 35,000  Level Anchorage Center
Fri 05:52:09 AM 56.4500 -140.1167 132° Southeast 430 495 35,000  Level Anchorage Center
Fri 05:53:09 AM 56.3667 -139.9667 135° Southeast 440 506 35,000  Level Anchorage Center
Fri 05:54:09 AM 56.2667 -139.8000 137° Southeast 440 506 35,000  Level Anchorage Center
Fri 05:56:10 AM 56.1000 -139.5167 136° Southeast 430 495 35,000  Level Anchorage Center
Fri 05:57:10 AM 56.0167 -139.3500 132° Southeast 430 495 35,000  Level Anchorage Center
Fri 05:58:11 AM 55.9333 -139.1833 132° Southeast 440 506 35,000  Level Anchorage Center
Fri 05:59:11 AM 55.8500 -139.0333 135° Southeast 440 506 35,000  Level Anchorage Center
Fri 06:00:11 AM 55.7500 -138.8667 137° Southeast 450 518 35,000  Level Anchorage Center
Fri 06:01:12 AM 55.6667 -138.7167 135° Southeast 440 506 35,000  Level Anchorage Center
Fri 06:02:12 AM 55.5667 -138.5333 134° Southeast 440 506 35,000  Level Anchorage Center
Fri 06:03:12 AM 55.4667 -138.3833 140° Southeast 440 506 35,000  Level Anchorage Center
Fri 06:04:13 AM 55.3833 -138.2333 134° Southeast 450 518 35,000  Level Anchorage Center
Fri 06:05:13 AM 55.2833 -138.0833 139° Southeast 440 506 35,000  Level Anchorage Center
Fri 06:06:14 AM 55.2000 -137.9333 134° Southeast 440 506 35,000  Level Anchorage Center
Fri 06:07:14 AM 55.1167 -137.7833 134° Southeast 440 506 35,000  Level Anchorage Center
Fri 06:08:14 AM 55.0167 -137.6333 139° Southeast 450 518 35,000  Level Anchorage Center
Fri 06:09:15 AM 54.9333 -137.4833 134° Southeast 450 518 35,000  Level Anchorage Center
Fri 06:10:15 AM 54.8333 -137.3333 139° Southeast 460 529 35,000  Level Anchorage Center
Fri 06:11:15 AM 54.7500 -137.1833 134° Southeast 450 518 35,000  Level Anchorage Center
Fri 06:12:15 AM 54.6500 -137.0333 139° Southeast 440 506 35,000  Level Anchorage Center
Fri 06:13:16 AM 54.5667 -136.9000 137° Southeast 440 506 35,000  Level Anchorage Center
Fri 06:14:16 AM 54.4833 -136.7500 134° Southeast 430 495 35,000  Level Anchorage Center
Fri 06:15:16 AM 54.3833 -136.6167 142° Southeast 440 506 35,000 50 Level Anchorage Center
Fri 06:16:17 AM 54.3000 -136.4667 134° Southeast 440 506 35,100  Climbing Anchorage Center
Fri 06:17:17 AM 54.2167 -136.3333 137° Southeast 430 495 35,000 -100 Descending Anchorage Center
Fri 06:18:17 AM 54.1167 -136.2000 142° Southeast 440 506 34,900 -50 Descending Anchorage Center
Fri 06:19:18 AM 54.0167 -136.0333 136° Southeast 450 518 34,900  Level Anchorage Center
Fri 06:20:18 AM 53.9167 -135.9167 145° Southeast 440 506 34,900 100 Level Anchorage Center
Fri 06:21:18 AM 53.8167 -135.8000 145° Southeast 440 506 35,100 99 Climbing Anchorage Center
Fri 06:22:19 AM 53.7167 -135.6667 142° Southeast 440 506 35,100  Level Anchorage Center
Fri 06:23:19 AM 53.6167 -135.5500 145° Southeast 440 506 35,100 -50 Level Anchorage Center
Fri 06:24:20 AM 53.5167 -135.4333 145° Southeast 450 518 35,000  Descending Anchorage Center
Fri 06:25:20 AM 53.4167 -135.3167 145° Southeast 440 506 35,100 50 Climbing Anchorage Center
Fri 06:26:20 AM 53.3167 -135.2000 145° Southeast 440 506 35,100 -99 Level Anchorage Center
Fri 06:27:21 AM 53.2167 -135.0833 145° Southeast 440 506 34,900 -99 Descending Anchorage Center
Fri 06:28:21 AM 53.1167 -134.9667 145° Southeast 440 506 34,900  Level Anchorage Center
Fri 06:29:21 AM 53.0167 -134.8500 145° Southeast 440 506 34,900 50 Level Anchorage Center
Fri 06:30:22 AM 52.9167 -134.7333 145° Southeast 440 506 35,000 50 Climbing Anchorage Center
Fri 06:31:22 AM 52.8167 -134.6167 145° Southeast 450 518 35,000  Level Anchorage Center
Fri 06:32:22 AM 52.7000 -134.5000 149° Southeast 450 518 35,000 50 Level Anchorage Center
Fri 06:33:23 AM 52.6000 -134.3833 145° Southeast 450 518 35,100  Climbing Anchorage Center
Fri 06:34:23 AM 52.5000 -134.2667 145° Southeast 440 506 35,000 -50 Descending Anchorage Center
Fri 06:35:23 AM 52.4000 -134.1667 149° Southeast 440 506 35,000  Level Anchorage Center
Fri 06:36:37 AM 52.2667 -134.0833 159° South 440 506 35,000 -45 Level Vancouver Center
Fri 06:37:37 AM 52.1667 -133.9667 144° Southeast 440 506 34,900  Descending Vancouver Center
Fri 06:38:37 AM 52.0500 -133.8333 145° Southeast 440 506 35,000 50 Climbing Vancouver Center
Fri 06:39:37 AM 51.9667 -133.7333 144° Southeast 450 518 35,000  Level Vancouver Center
Fri 06:40:37 AM 51.8500 -133.6333 152° Southeast 450 518 35,000 50 Level Vancouver Center
Fri 06:41:37 AM 51.7500 -133.5167 144° Southeast 450 518 35,100 200 Climbing Vancouver Center
Fri 06:42:37 AM 51.6333 -133.4000 148° Southeast 450 518 35,400 750 Climbing Vancouver Center
Fri 06:43:37 AM 51.5500 -133.3000 143° Southeast 450 518 36,600 800 Climbing Vancouver Center
Fri 06:44:37 AM 51.4333 -133.1833 148° Southeast 440 506 37,000 200 Climbing Vancouver Center
Fri 06:45:37 AM 51.3333 -133.0833 148° Southeast 450 518 37,000  Level Vancouver Center
Fri 06:46:37 AM 51.2333 -132.9667 144° Southeast 440 506 37,000  Level Vancouver Center
Fri 06:47:37 AM 51.1333 -132.8667 148° Southeast 450 518 37,000  Level Vancouver Center
Fri 06:48:37 AM 51.0167 -132.7500 148° Southeast 450 518 37,000  Level Vancouver Center
Fri 06:49:37 AM 50.9167 -132.6667 152° Southeast 440 506 37,000 -50 Level Vancouver Center
Fri 06:50:37 AM 50.8167 -132.5333 140° Southeast 450 518 36,900  Descending Vancouver Center
Fri 06:51:37 AM 50.7000 -132.4333 151° Southeast 450 518 37,000 100 Climbing Vancouver Center
Fri 06:52:37 AM 50.6000 -132.3333 148° Southeast 450 518 37,100 -50 Climbing Vancouver Center
Fri 06:53:37 AM 50.4833 -132.2000 144° Southeast 450 518 36,900 -100 Descending Vancouver Center
Fri 06:54:37 AM 50.4000 -132.1167 147° Southeast 450 518 36,900 50 Level Vancouver Center
Fri 06:55:37 AM 50.2833 -132.0167 151° Southeast 450 518 37,000 100 Climbing Vancouver Center
Fri 06:56:37 AM 50.1667 -131.9167 151° Southeast 460 529 37,100 50 Climbing Vancouver Center
Fri 06:57:37 AM 50.0667 -131.8000 143° Southeast 460 529 37,100 -50 Level Vancouver Center
Fri 06:58:37 AM 49.9500 -131.7000 151° Southeast 460 529 37,000 -100 Descending Vancouver Center
Fri 06:59:37 AM 49.8500 -131.6000 147° Southeast 450 518 36,900 -50 Descending Vancouver Center
Fri 07:00:37 AM 49.7333 -131.5000 151° Southeast 450 518 36,900 50 Level Vancouver Center
Fri 07:01:37 AM 49.6167 -131.4167 155° Southeast 460 529 37,000 100 Climbing Vancouver Center
Fri 07:02:37 AM 49.5167 -131.3167 147° Southeast 450 518 37,100  Climbing Vancouver Center
Fri 07:03:37 AM 49.4000 -131.2167 151° Southeast 460 529 37,000 -100 Descending Vancouver Center
Fri 07:04:37 AM 49.2833 -131.1333 155° Southeast 460 529 36,900 -50 Descending Vancouver Center
Fri 07:05:37 AM 49.1833 -131.0333 147° Southeast 460 529 36,900  Level Vancouver Center
Fri 07:06:37 AM 49.0667 -130.9333 151° Southeast 470 541 36,900 100 Level Vancouver Center
Fri 07:07:37 AM 48.9500 -130.8500 155° Southeast 470 541 37,100 100 Climbing Vancouver Center
Fri 07:08:37 AM 48.8333 -130.7333 147° Southeast 470 541 37,100  Level Vancouver Center
Fri 07:09:37 AM 48.7167 -130.6333 151° Southeast 470 541 37,100 -50 Level Vancouver Center
Fri 07:10:37 AM 48.6000 -130.5500 155° Southeast 470 541 37,000 -50 Descending Vancouver Center
Fri 07:11:37 AM 48.5000 -130.4500 146° Southeast 470 541 37,000  Level Vancouver Center
Fri 07:12:37 AM 48.3833 -130.3667 155° Southeast 470 541 37,000  Level Vancouver Center
Fri 07:13:37 AM 48.2667 -130.2667 150° Southeast 470 541 37,000  Level Vancouver Center
Fri 07:14:37 AM 48.1500 -130.1833 155° Southeast 480 552 37,000  Level Vancouver Center
Fri 07:15:37 AM 48.0333 -130.0667 146° Southeast 480 552 37,000 50 Level Vancouver Center
Fri 07:16:37 AM 47.9167 -129.9833 154° Southeast 470 541 37,100  Climbing Vancouver Center
Fri 07:17:37 AM 47.7833 -129.8833 153° Southeast 470 541 37,000 -50 Descending Vancouver Center
Fri 07:18:37 AM 47.6833 -129.8000 151° Southeast 480 552 37,000  Level Vancouver Center
Fri 07:19:37 AM 47.5667 -129.6833 146° Southeast 480 552 37,000  Level Vancouver Center
Fri 07:20:37 AM 47.4500 -129.6000 154° Southeast 480 552 37,000  Level Vancouver Center
Fri 07:21:37 AM 47.3333 -129.5167 154° Southeast 490 564 37,000  Level Vancouver Center
Fri 07:22:37 AM 47.2167 -129.4333 154° Southeast 480 552 37,000 50 Level Vancouver Center
Fri 07:23:37 AM 47.0833 -129.3333 153° Southeast 490 564 37,100 50 Climbing Vancouver Center
Fri 07:24:37 AM 46.9833 -129.2500 150° Southeast 480 552 37,100 -50 Level Vancouver Center
Fri 07:25:37 AM 46.8667 -129.1667 154° Southeast 480 552 37,000 -50 Descending Vancouver Center
Fri 07:26:37 AM 46.7667 -129.0667 146° Southeast 480 552 37,000 -50 Level Vancouver Center
Fri 07:27:37 AM 46.6333 -128.9667 153° Southeast 480 552 36,900 -50 Descending Vancouver Center
Fri 07:28:37 AM 46.5167 -128.8833 154° Southeast 490 564 36,900 50 Level Vancouver Center
Fri 07:29:37 AM 46.4000 -128.7833 149° Southeast 480 552 37,000 50 Climbing Vancouver Center
Fri 07:30:37 AM 46.2833 -128.7000 154° Southeast 490 564 37,000 50 Level Vancouver Center
Fri 07:31:37 AM 46.1500 -128.6167 157° South 490 564 37,100  Climbing Vancouver Center
Fri 07:32:05 AM 47.7000 -129.7667 152° Southeast 491 565 37,000 -100 Descending Oakland Oceanic (ODAPS)
Fri 07:32:37 AM 46.0333 -128.5333 152° Southeast 490 564 37,000 -65 Level Vancouver Center
Fri 07:33:37 AM 45.9167 -128.4500 154° Southeast 480 552 36,900 -50 Descending Vancouver Center
Fri 07:34:37 AM 45.8167 -128.3500 145° Southeast 480 552 36,900 50 Level Vancouver Center
Fri 07:35:37 AM 45.6833 -128.2667 156° South 480 552 37,000 50 Climbing Vancouver Center
Fri 07:36:37 AM 45.5667 -128.1833 153° Southeast 480 552 37,000  Level Vancouver Center
Fri 07:37:37 AM 45.4500 -128.1000 153° Southeast 480 552 37,000  Level Vancouver Center
Fri 07:54:20 AM 43.4825 -126.6875 153° Southeast 484 557 37,000 Level Seattle Center
Fri 07:55:00 AM 43.5556 -126.7347 153° Southeast  Level FlightAware Approximate
Fri 07:55:20 AM 43.3600 -126.6044 154° Southeast 489 563 37,100  Level Seattle Center
Fri 07:56:00 AM 43.4461 -126.6589 153° Southeast  Level FlightAware Approximate
Fri 07:56:21 AM 43.2369 -126.5228 154° Southeast 491 565 37,100  Level Seattle Center
Fri 07:57:00 AM 43.3348 -126.5883 153° Southeast  Level FlightAware Approximate
Fri 07:57:21 AM 43.1133 -126.4408 154° Southeast 493 567 37,000  Level Seattle Center
Fri 07:58:00 AM 43.2252 -126.5128 153° Southeast  Level FlightAware Approximate
Fri 07:58:21 AM 42.9903 -126.3603 154° Southeast 493 567 36,900  Level Seattle Center
Fri 07:59:00 AM 43.1155 -126.4376 153° Southeast  Level FlightAware Approximate
Fri 07:59:21 AM 42.8667 -126.2783 154° Southeast 493 567 36,900  Level Seattle Center
Fri 08:00:21 AM 42.7469 -126.1650 145° Southeast 510 587 36,900 50 Level Seattle Center
Fri 08:01:21 AM 42.6389 -126.0428 140° Southeast 506 582 37,000 50 Climbing Seattle Center
Fri 08:02:21 AM 42.5306 -125.9219 141° Southeast 505 581 37,000  Level Seattle Center
Fri 08:03:22 AM 42.4211 -125.8022 141° Southeast 507 583 37,000  Level Seattle Center
Fri 08:04:22 AM 42.3119 -125.6822 141° Southeast 507 583 37,000 -50 Level Seattle Center
Fri 08:05:22 AM 42.2031 -125.5608 140° Southeast 509 586 36,900 -50 Descending Seattle Center
Fri 08:06:22 AM 42.0925 -125.4422 141° Southeast 510 587 36,900  Level Seattle Center
Fri 08:07:22 AM 41.9831 -125.3222 141° Southeast 508 585 36,900 50 Level Seattle Center
Fri 08:08:22 AM 41.8719 -125.2033 141° Southeast 511 588 37,000 50 Climbing Seattle Center
Fri 08:09:23 AM 41.7614 -125.0833 141° Southeast 513 590 37,000  Level Seattle Center
Fri 08:10:23 AM 41.6514 -124.9647 141° Southeast 509 586 37,000 -50 Level Seattle Center
Fri 08:11:23 AM 41.5392 -124.8467 142° Southeast 514 592 36,900 -50 Descending Seattle Center
Fri 08:12:23 AM 41.4278 -124.7286 142° Southeast 512 589 36,900  Level Seattle Center
Fri 08:13:23 AM 41.3175 -124.6122 142° Southeast 508 585 36,900 50 Level Seattle Center
Fri 08:14:24 AM 41.2064 -124.4947 141° Southeast 509 586 37,000 50 Climbing Seattle Center
Fri 08:15:24 AM 41.0936 -124.3781 142° Southeast 512 589 37,000  Level Seattle Center
Fri 08:16:24 AM 40.9822 -124.2611 142° Southeast 511 588 37,000  Level Seattle Center
Fri 08:17:24 AM 40.8708 -124.1450 142° Southeast 509 586 37,000 -50 Level Seattle Center
Fri 08:18:24 AM 40.7589 -124.0303 142° Southeast 507 583 36,900 -50 Descending Seattle Center
Fri 08:19:24 AM 40.6458 -123.9139 142° Southeast 510 587 36,900  Level Seattle Center
Fri 08:20:25 AM 40.5339 -123.7972 142° Southeast 508 585 36,900  Level Seattle Center
Fri 08:21:25 AM 40.4206 -123.6833 143° Southeast 509 586 36,900 50 Level Seattle Center
Fri 08:22:25 AM 40.3083 -123.5675 142° Southeast 509 586 37,000 50 Climbing Seattle Center
Fri 08:23:25 AM 40.1956 -123.4542 142° Southeast 509 586 37,000  Level Seattle Center
Fri 08:24:25 AM 40.0828 -123.3414 143° Southeast 510 587 37,000 -983 Level Seattle Center
Fri 08:25:21 AM 39.9600 -123.2197 143° Southeast 512 589 35,100 -2,051 Descending Oakland Center
Fri 08:26:22 AM 39.8492 -123.1075 142° Southeast 510 587 33,000 -2,033 Descending Oakland Center
Fri 08:27:22 AM 39.7372 -122.9989 143° Southeast 507 583 31,000 -2,000 Descending Oakland Center
Fri 08:28:22 AM 39.6256 -122.8889 143° Southeast 508 585 29,000 -1,950 Descending Oakland Center
Fri 08:29:22 AM 39.5181 -122.7806 142° Southeast 494 568 27,100 -1,950 Descending Oakland Center
Fri 08:30:22 AM 39.4150 -122.6797 143° Southeast 472 543 25,100 -1,983 Descending Oakland Center
Fri 08:31:23 AM 39.3136 -122.5808 143° Southeast 461 531 23,100 -1,934 Descending Oakland Center
Fri 08:32:23 AM 39.2200 -122.4897 143° Southeast 447 514 21,200 -1,950 Descending Oakland Center
Fri 08:33:23 AM 39.1242 -122.3969 143° Southeast 434 499 19,200 -1,850 Descending Oakland Center
Fri 08:34:23 AM 39.0308 -122.3072 143° Southeast 422 486 17,500 -1,900 Descending Oakland Center
Fri 08:35:23 AM 38.9347 -122.2147 143° Southeast 431 496 15,400 -2,050 Descending Oakland Center
Fri 08:36:23 AM 38.8414 -122.1258 143° Southeast 423 487 13,400 -1,537 Descending Oakland Center
Fri 08:37:24 AM 38.7511 -122.0375 143° Southeast 412 474 12,300 -694 Descending Oakland Center
Fri 08:38:24 AM 38.6550 -121.9475 144° Southeast 392 451 12,000 -150 Descending Oakland Center
Fri 08:39:24 AM 38.5672 -121.8639 143° Southeast 392 451 12,000  Level Oakland Center
Fri 08:40:24 AM 38.4892 -121.7883 143° Southeast 395 455 12,000  Level Oakland Center
Fri 08:41:24 AM 38.3897 -121.6953 144° Southeast 397 457 12,000  Level Oakland Center
Fri 08:42:25 AM 38.3014 -121.6122 144° Southeast 395 455 12,000 -496 Level Oakland Center
Fri 08:43:25 AM 38.2256 -121.5408 144° Southeast 342 394 11,000 -1,100 Descending Oakland Center
Fri 08:44:25 AM 38.1664 -121.4850 143° Southeast 319 367 9,800 -1,350 Descending Oakland Center
Fri 08:45:25 AM 38.1000 -121.4222 143° Southeast 303 349 8,300 -1,500 Descending Oakland Center
Fri 08:46:25 AM 38.0372 -121.3631 143° Southeast 287 330 6,800 -1,537 Descending Oakland Center
Fri 08:47:26 AM 37.9892 -121.2931 131° Southeast 268 308 5,200 -1,488 Descending Oakland Center
Fri 08:48:26 AM 37.9450 -121.2208 128° Southeast 262 302 3,800 -1,400 Descending Oakland Center
Fri 08:49:26 AM 37.9056 -121.1431 123° Southeast 232 267 2,400 -1,100 Descending Oakland Center
Fri 08:50:26 AM 37.8592 -121.1350 172° South 209 241 1,600 -650 Descending Oakland Center
Fri 08:51:26 AM 37.8528 -121.1739 258° West 171 197 1,100 -298 Descending Oakland Center
Fri 08:52:27 AM 37.8778 -121.2133 309° West 157 181 1,000 -581 Descending Oakland Center
Fri 08:52:59 AM 37.8833 -121.2333 289° West 119 137 200 -1,500 Descending Northern Cal TRACON

Login

Don't have an account? Register now (free) for customized features, flight alerts, and more!